Time;durP1;ratioP1;P1;durP2;ratioP2;P2;SDS_P1;SDS_P2;PMS_P1;PMS_P2;Temp;Humidity;BMP_temperature;BMP_pressure;BME280_temperature;BME280_humidity;BME280_pressure;Samples;Min_cycle;Max_cycle;Signal;HPM_P1;HPM_P2
2023/08/25 00:01:42;;;;;;;30.17;16.03;;;;;;;;;;5041494;28;20480;-78
2023/08/25 00:04:09;;;;;;;19.00;16.40;;;;;;;;;;5041718;28;20459;-78
2023/08/25 00:06:36;;;;;;;19.53;17.13;;;;;;;;;;5046569;28;20487;-76
2023/08/25 00:09:03;;;;;;;17.10;15.30;;;;;;;;;;5046838;28;20448;-76
2023/08/25 00:11:30;;;;;;;18.87;16.80;;;;;;;;;;5042307;28;20467;-76
2023/08/25 00:13:57;;;;;;;18.17;16.40;;;;;;;;;;5044782;28;20456;-76
2023/08/25 00:16:23;;;;;;;18.90;16.90;;;;;;;;;;5041075;28;20477;-76
2023/08/25 00:18:50;;;;;;;19.30;17.37;;;;;;;;;;5044055;28;20468;-77
2023/08/25 00:21:17;;;;;;;25.33;18.83;;;;;;;;;;5044431;28;20476;-77
2023/08/25 00:23:44;;;;;;;17.93;14.97;;;;;;;;;;5047096;28;20479;-77
2023/08/25 00:26:10;;;;;;;19.93;16.40;;;;;;;;;;5045230;28;21030;-77
2023/08/25 00:28:36;;;;;;;16.17;14.20;;;;;;;;;;5046816;28;20463;-77
2023/08/25 00:31:03;;;;;;;18.77;16.77;;;;;;;;;;5046359;28;20483;-77
2023/08/25 00:33:29;;;;;;;17.83;16.03;;;;;;;;;;5042253;28;20483;-77
2023/08/25 00:35:55;;;;;;;16.43;13.30;;;;;;;;;;5042720;28;20895;-77
2023/08/25 00:38:28;;;;;;;25.13;18.77;;;;;;;;;;5042503;28;20452;-77
2023/08/25 00:40:55;;;;;;;20.83;17.50;;;;;;;;;;5039902;28;20998;-77
2023/08/25 00:43:21;;;;;;;19.33;17.50;;;;;;;;;;5040564;28;20479;-77
2023/08/25 00:45:47;;;;;;;24.00;19.47;;;;;;;;;;5045622;28;20468;-77
2023/08/25 00:48:14;;;;;;;22.63;17.97;;;;;;;;;;5042696;28;20458;-77
2023/08/25 00:50:40;;;;;;;28.00;18.60;;;;;;;;;;5045368;28;20851;-77
2023/08/25 00:53:07;;;;;;;18.90;16.90;;;;;;;;;;5042582;28;20487;-77
2023/08/25 00:55:36;;;;;;;21.00;18.13;;;;;;;;;;5040057;28;20843;-76
2023/08/25 00:58:05;;;;;;;18.27;16.57;;;;;;;;;;5043000;28;21081;-77
2023/08/25 01:00:32;;;;;;;19.43;17.27;;;;;;;;;;5041516;28;20532;-76
2023/08/25 01:02:58;;;;;;;22.33;18.00;;;;;;;;;;5043992;28;20479;-77
2023/08/25 01:05:25;;;;;;;19.27;16.73;;;;;;;;;;5043114;28;20476;-77
2023/08/25 01:07:51;;;;;;;21.87;18.27;;;;;;;;;;5044905;28;20460;-77
2023/08/25 01:10:24;;;;;;;21.03;17.07;;;;;;;;;;5042992;28;20480;-77
2023/08/25 01:12:56;;;;;;;23.90;18.67;;;;;;;;;;5041484;28;20483;-77
2023/08/25 01:15:26;;;;;;;25.90;19.20;;;;;;;;;;5047566;28;20494;-77
2023/08/25 01:17:55;;;;;;;21.73;19.20;;;;;;;;;;5036684;28;20468;-77
2023/08/25 01:20:22;;;;;;;22.67;17.90;;;;;;;;;;5045982;28;20475;-78
2023/08/25 01:22:52;;;;;;;20.13;16.40;;;;;;;;;;5046005;28;20529;-77
2023/08/25 01:25:33;;;;;;;19.33;17.07;;;;;;;;;;5043574;28;20467;-77
2023/08/25 01:28:02;;;;;;;23.30;18.20;;;;;;;;;;5041611;28;20456;-77
2023/08/25 01:30:30;;;;;;;19.93;16.23;;;;;;;;;;5041765;28;20568;-77
2023/08/25 01:32:58;;;;;;;19.67;15.63;;;;;;;;;;5040143;28;20475;-77
2023/08/25 01:35:28;;;;;;;19.10;17.20;;;;;;;;;;5040973;28;20954;-78
2023/08/25 01:37:58;;;;;;;18.67;16.60;;;;;;;;;;5042167;28;20502;-77
2023/08/25 01:40:28;;;;;;;19.53;17.40;;;;;;;;;;5039991;28;20476;-78
2023/08/25 01:42:55;;;;;;;21.43;16.70;;;;;;;;;;5041180;28;20486;-77
2023/08/25 01:45:23;;;;;;;18.80;16.60;;;;;;;;;;5044060;28;20856;-77
2023/08/25 01:47:50;;;;;;;18.60;16.03;;;;;;;;;;5050705;28;20462;-77
2023/08/25 01:50:17;;;;;;;18.17;16.13;;;;;;;;;;5050887;28;20460;-77
2023/08/25 01:52:44;;;;;;;20.50;16.90;;;;;;;;;;5045179;28;20479;-77
2023/08/25 01:55:10;;;;;;;23.10;16.80;;;;;;;;;;5043921;28;20472;-77
2023/08/25 01:57:37;;;;;;;23.03;19.03;;;;;;;;;;5046537;28;20455;-77
2023/08/25 02:00:04;;;;;;;18.20;16.30;;;;;;;;;;5046747;28;20472;-77
2023/08/25 02:02:32;;;;;;;22.23;19.87;;;;;;;;;;5044972;28;20483;-77
2023/08/25 02:04:58;;;;;;;27.93;18.20;;;;;;;;;;5045554;28;20993;-77
2023/08/25 02:07:25;;;;;;;35.57;18.70;;;;;;;;;;5045443;28;20465;-77
2023/08/25 02:09:54;;;;;;;19.67;17.33;;;;;;;;;;5045338;28;20463;-77
2023/08/25 02:12:21;;;;;;;19.83;17.07;;;;;;;;;;5045472;28;20526;-77
2023/08/25 02:14:49;;;;;;;19.57;17.43;;;;;;;;;;5047393;28;20436;-77
2023/08/25 02:17:16;;;;;;;25.73;17.73;;;;;;;;;;5043885;28;20547;-77
2023/08/25 02:19:43;;;;;;;22.00;18.20;;;;;;;;;;5045169;28;20638;-78
2023/08/25 02:22:10;;;;;;;23.30;20.57;;;;;;;;;;5045088;28;20483;-77
2023/08/25 02:24:36;;;;;;;19.87;17.20;;;;;;;;;;5044266;28;20459;-78
2023/08/25 02:27:03;;;;;;;21.37;18.67;;;;;;;;;;5041698;28;20994;-77
2023/08/25 02:29:29;;;;;;;20.93;18.60;;;;;;;;;;5047341;28;20474;-77
2023/08/25 02:31:56;;;;;;;21.23;18.97;;;;;;;;;;5044095;28;20476;-77
2023/08/25 02:34:23;;;;;;;20.73;17.00;;;;;;;;;;5045146;28;20990;-77
2023/08/25 02:36:50;;;;;;;22.80;20.40;;;;;;;;;;5042944;28;20529;-77
2023/08/25 02:39:16;;;;;;;27.37;21.87;;;;;;;;;;5040670;28;20474;-77
2023/08/25 02:41:43;;;;;;;25.30;21.20;;;;;;;;;;5046517;28;20507;-77
2023/08/25 02:44:10;;;;;;;27.83;21.60;;;;;;;;;;5045801;28;20457;-77
2023/08/25 02:46:37;;;;;;;26.20;20.90;;;;;;;;;;5051309;28;20468;-77
2023/08/25 02:49:04;;;;;;;24.40;21.37;;;;;;;;;;5043925;28;20470;-77
2023/08/25 02:51:30;;;;;;;31.83;23.80;;;;;;;;;;5045804;28;20479;-78
2023/08/25 02:53:58;;;;;;;27.43;21.77;;;;;;;;;;5040523;28;20471;-77
2023/08/25 02:56:24;;;;;;;24.00;21.00;;;;;;;;;;5045969;28;20469;-78
2023/08/25 02:58:50;;;;;;;38.13;25.70;;;;;;;;;;5040476;28;20464;-77
2023/08/25 03:01:17;;;;;;;26.70;23.10;;;;;;;;;;5046671;28;21006;-77
2023/08/25 03:03:44;;;;;;;26.37;22.83;;;;;;;;;;5046038;28;20456;-78
2023/08/25 03:06:10;;;;;;;27.17;23.70;;;;;;;;;;5050922;28;20472;-77
2023/08/25 03:08:36;;;;;;;26.03;22.73;;;;;;;;;;5046798;28;20452;-78
2023/08/25 03:11:04;;;;;;;27.67;23.40;;;;;;;;;;5041534;28;21067;-78
2023/08/25 03:13:31;;;;;;;30.03;24.20;;;;;;;;;;5044508;28;20488;-77
2023/08/25 03:15:59;;;;;;;29.80;23.90;;;;;;;;;;5044710;28;20464;-78
2023/08/25 03:18:26;;;;;;;30.00;25.00;;;;;;;;;;5043386;28;20455;-77
2023/08/25 03:20:52;;;;;;;30.07;23.23;;;;;;;;;;5046781;28;20499;-77
2023/08/25 03:23:18;;;;;;;39.73;27.40;;;;;;;;;;5045777;28;20475;-77
2023/08/25 03:25:45;;;;;;;35.40;27.40;;;;;;;;;;5048704;28;20480;-78
2023/08/25 03:28:13;;;;;;;30.47;26.03;;;;;;;;;;5046635;28;20450;-78
2023/08/25 03:30:40;;;;;;;34.27;26.40;;;;;;;;;;5044083;28;20993;-78
2023/08/25 03:33:06;;;;;;;32.17;26.57;;;;;;;;;;5048629;28;20483;-78
2023/08/25 03:35:33;;;;;;;39.40;28.27;;;;;;;;;;5043632;28;20476;-78
2023/08/25 03:37:59;;;;;;;35.80;28.83;;;;;;;;;;5050181;28;20479;-78
2023/08/25 03:40:26;;;;;;;34.73;29.10;;;;;;;;;;5047948;28;20475;-78
2023/08/25 03:42:53;;;;;;;37.37;27.47;;;;;;;;;;5041265;28;20531;-78
2023/08/25 03:45:20;;;;;;;32.27;26.87;;;;;;;;;;5047349;28;20842;-78
2023/08/25 03:47:47;;;;;;;30.93;26.53;;;;;;;;;;5044410;28;20468;-77
2023/08/25 03:50:13;;;;;;;30.33;26.70;;;;;;;;;;5040231;28;20864;-77
2023/08/25 03:52:40;;;;;;;31.70;25.20;;;;;;;;;;5044225;28;20563;-77
2023/08/25 03:55:06;;;;;;;30.80;25.97;;;;;;;;;;5044890;28;20465;-78
2023/08/25 03:57:32;;;;;;;47.33;29.40;;;;;;;;;;5048248;28;20449;-78
2023/08/25 03:59:59;;;;;;;30.23;26.93;;;;;;;;;;5044940;28;20814;-78
2023/08/25 04:02:26;;;;;;;44.00;29.07;;;;;;;;;;5044828;28;20488;-77
2023/08/25 04:04:53;;;;;;;31.17;27.30;;;;;;;;;;5044641;28;20456;-77
2023/08/25 04:07:19;;;;;;;33.40;29.73;;;;;;;;;;5040370;28;21072;-77
2023/08/25 04:09:45;;;;;;;34.60;26.80;;;;;;;;;;5044505;28;20456;-79
2023/08/25 04:12:13;;;;;;;28.93;25.83;;;;;;;;;;5043910;28;20476;-78
2023/08/25 04:14:39;;;;;;;37.47;27.93;;;;;;;;;;5047145;28;20497;-79
2023/08/25 04:17:06;;;;;;;37.60;29.20;;;;;;;;;;5045054;28;20452;-78
2023/08/25 04:19:33;;;;;;;31.27;26.77;;;;;;;;;;5042094;28;20459;-79
2023/08/25 04:22:00;;;;;;;36.57;29.73;;;;;;;;;;5042401;28;20527;-78
2023/08/25 04:24:26;;;;;;;32.33;26.90;;;;;;;;;;5040530;28;20467;-78
2023/08/25 04:26:54;;;;;;;32.67;28.77;;;;;;;;;;5037217;28;20761;-78
2023/08/25 04:29:20;;;;;;;34.00;29.57;;;;;;;;;;5044100;28;20888;-78
2023/08/25 04:31:46;;;;;;;39.20;31.37;;;;;;;;;;5039544;28;20476;-78
2023/08/25 04:34:13;;;;;;;37.83;29.20;;;;;;;;;;5044626;28;20476;-78
2023/08/25 04:36:42;;;;;;;36.67;29.20;;;;;;;;;;5039931;28;20482;-78
2023/08/25 04:39:08;;;;;;;35.40;29.50;;;;;;;;;;5041416;28;20448;-78
2023/08/25 04:41:34;;;;;;;35.97;29.73;;;;;;;;;;5039576;28;20559;-78
2023/08/25 04:44:01;;;;;;;36.10;28.10;;;;;;;;;;5045985;28;20879;-78
2023/08/25 04:46:28;;;;;;;32.40;27.07;;;;;;;;;;5042986;28;20487;-78
2023/08/25 04:48:54;;;;;;;35.30;27.90;;;;;;;;;;5042089;28;20486;-78
2023/08/25 04:51:21;;;;;;;37.30;30.10;;;;;;;;;;5040657;28;20564;-78
2023/08/25 04:53:49;;;;;;;30.27;24.43;;;;;;;;;;5041877;28;20479;-79
2023/08/25 04:56:17;;;;;;;33.63;28.20;;;;;;;;;;5039254;28;20481;-78
2023/08/25 04:58:44;;;;;;;37.67;29.57;;;;;;;;;;5043004;28;20472;-78
2023/08/25 05:01:10;;;;;;;34.00;28.30;;;;;;;;;;5042069;28;20853;-77
2023/08/25 05:03:36;;;;;;;35.97;30.37;;;;;;;;;;5042166;28;20547;-78
2023/08/25 05:06:03;;;;;;;39.07;29.23;;;;;;;;;;5039263;28;20911;-78
2023/08/25 05:08:29;;;;;;;30.10;24.93;;;;;;;;;;5038796;28;20437;-78
2023/08/25 05:10:57;;;;;;;37.50;28.40;;;;;;;;;;5040349;28;20478;-78
2023/08/25 05:13:23;;;;;;;37.40;27.10;;;;;;;;;;5041636;28;20502;-79
2023/08/25 05:15:50;;;;;;;38.50;29.37;;;;;;;;;;5040901;28;20483;-78
2023/08/25 05:18:16;;;;;;;34.73;28.70;;;;;;;;;;5045802;28;20450;-78
2023/08/25 05:20:43;;;;;;;33.90;28.37;;;;;;;;;;5042608;28;20476;-78
2023/08/25 05:23:10;;;;;;;38.37;32.50;;;;;;;;;;5047756;28;20493;-78
2023/08/25 05:25:36;;;;;;;44.47;30.90;;;;;;;;;;5045520;28;20529;-78
2023/08/25 05:28:04;;;;;;;36.67;29.73;;;;;;;;;;5043580;28;20492;-78
2023/08/25 05:30:30;;;;;;;39.77;31.20;;;;;;;;;;5050593;28;20471;-78
2023/08/25 05:32:57;;;;;;;36.43;30.03;;;;;;;;;;5045171;28;20882;-78
2023/08/25 05:35:23;;;;;;;36.73;31.27;;;;;;;;;;5042685;28;20467;-78
2023/08/25 05:37:50;;;;;;;40.93;30.43;;;;;;;;;;5044542;28;20473;-78
2023/08/25 05:40:17;;;;;;;36.97;29.80;;;;;;;;;;5048035;28;20474;-78
2023/08/25 05:42:44;;;;;;;42.40;32.67;;;;;;;;;;5049136;28;20484;-78
2023/08/25 05:45:12;;;;;;;39.13;29.90;;;;;;;;;;5042982;28;20475;-78
2023/08/25 05:47:38;;;;;;;37.53;31.33;;;;;;;;;;5047647;28;20460;-78
2023/08/25 05:50:05;;;;;;;41.80;30.97;;;;;;;;;;5047164;28;20464;-78
2023/08/25 05:52:31;;;;;;;39.63;31.33;;;;;;;;;;5041828;28;20858;-77
2023/08/25 05:54:57;;;;;;;37.67;31.80;;;;;;;;;;5045423;28;20478;-78
2023/08/25 05:57:24;;;;;;;38.70;31.67;;;;;;;;;;5046278;28;20463;-78
2023/08/25 05:59:51;;;;;;;37.60;31.43;;;;;;;;;;5043434;28;20460;-79
2023/08/25 06:02:19;;;;;;;42.50;34.10;;;;;;;;;;5044820;28;20862;-79
2023/08/25 06:04:45;;;;;;;42.97;33.27;;;;;;;;;;5052823;28;20440;-79
2023/08/25 06:07:12;;;;;;;41.00;34.13;;;;;;;;;;5039751;28;20810;-78
2023/08/25 06:09:38;;;;;;;44.47;33.30;;;;;;;;;;5047221;28;20459;-80
2023/08/25 06:12:05;;;;;;;45.77;34.73;;;;;;;;;;5045488;28;20480;-79
2023/08/25 06:14:31;;;;;;;43.20;34.33;;;;;;;;;;5045934;28;20458;-78
2023/08/25 06:16:59;;;;;;;40.53;30.00;;;;;;;;;;5043723;28;20467;-79
2023/08/25 06:19:27;;;;;;;45.30;33.97;;;;;;;;;;5041019;28;20460;-79
2023/08/25 06:21:54;;;;;;;45.27;32.70;;;;;;;;;;5044079;28;20484;-79
2023/08/25 06:24:20;;;;;;;42.80;34.00;;;;;;;;;;5049599;28;20456;-78
2023/08/25 06:26:47;;;;;;;47.10;32.70;;;;;;;;;;5046132;28;20472;-78
2023/08/25 06:29:13;;;;;;;43.17;31.80;;;;;;;;;;5043018;28;20982;-78
2023/08/25 06:31:40;;;;;;;41.07;34.00;;;;;;;;;;5040260;28;20491;-78
2023/08/25 06:34:06;;;;;;;43.77;33.80;;;;;;;;;;5032554;28;21006;-78
2023/08/25 06:36:34;;;;;;;41.60;32.00;;;;;;;;;;5031192;28;20498;-78
2023/08/25 06:39:01;;;;;;;41.53;32.07;;;;;;;;;;5043296;28;20465;-78
2023/08/25 06:41:27;;;;;;;39.50;31.57;;;;;;;;;;5037940;28;20481;-78
2023/08/25 06:43:57;;;;;;;46.97;34.03;;;;;;;;;;5033626;28;20506;-78
2023/08/25 06:46:23;;;;;;;42.33;32.50;;;;;;;;;;5028324;28;20616;-78
2023/08/25 06:48:50;;;;;;;41.57;33.50;;;;;;;;;;5042497;28;21009;-79
2023/08/25 06:51:17;;;;;;;41.70;32.90;;;;;;;;;;5023275;28;20559;-79
2023/08/25 06:53:47;;;;;;;43.27;34.20;;;;;;;;;;5036720;28;20466;-78
2023/08/25 06:56:14;;;;;;;44.70;33.73;;;;;;;;;;5043538;28;20501;-78
2023/08/25 06:58:40;;;;;;;47.60;33.57;;;;;;;;;;5032807;28;20464;-78
2023/08/25 07:01:06;;;;;;;43.73;33.63;;;;;;;;;;5039133;28;20484;-78
2023/08/25 07:03:34;;;;;;;43.93;33.70;;;;;;;;;;5022341;28;20888;-78
2023/08/25 07:06:01;;;;;;;41.97;32.40;;;;;;;;;;5032867;28;20492;-78
2023/08/25 07:08:27;;;;;;;38.80;32.63;;;;;;;;;;5036867;28;20496;-79
2023/08/25 07:10:55;;;;;;;45.20;32.90;;;;;;;;;;5047933;28;20471;-78
2023/08/25 07:13:21;;;;;;;42.33;33.97;;;;;;;;;;5045688;28;20482;-78
2023/08/25 07:15:48;;;;;;;44.90;35.50;;;;;;;;;;5037887;28;20493;-78
2023/08/25 07:18:14;;;;;;;49.50;37.03;;;;;;;;;;5047850;28;20502;-79
2023/08/25 07:20:41;;;;;;;50.90;35.57;;;;;;;;;;5039988;28;20484;-78
2023/08/25 07:23:07;;;;;;;48.50;34.53;;;;;;;;;;5032300;28;20494;-79
2023/08/25 07:25:34;;;;;;;50.80;35.40;;;;;;;;;;5036314;28;20471;-78
2023/08/25 07:28:01;;;;;;;44.83;34.60;;;;;;;;;;5024268;28;20485;-78
2023/08/25 07:30:28;;;;;;;52.13;37.27;;;;;;;;;;5038473;28;20479;-78
2023/08/25 07:32:54;;;;;;;47.73;34.00;;;;;;;;;;5046366;28;20487;-80
2023/08/25 07:35:20;;;;;;;45.43;35.43;;;;;;;;;;5020559;28;20476;-78
2023/08/25 07:37:47;;;;;;;45.67;33.83;;;;;;;;;;5040617;28;20485;-78
2023/08/25 07:40:14;;;;;;;46.83;32.93;;;;;;;;;;5028233;28;20491;-77
2023/08/25 07:42:40;;;;;;;46.20;36.17;;;;;;;;;;5034384;28;21132;-77
2023/08/25 07:45:10;;;;;;;42.23;33.40;;;;;;;;;;5036674;28;20490;-78
2023/08/25 07:47:36;;;;;;;42.03;34.80;;;;;;;;;;5027933;28;20558;-78
2023/08/25 07:50:03;;;;;;;45.20;34.70;;;;;;;;;;5029522;28;20473;-77
2023/08/25 07:52:30;;;;;;;43.93;34.60;;;;;;;;;;5024368;28;20898;-78
2023/08/25 07:54:56;;;;;;;46.30;34.37;;;;;;;;;;5030631;28;20486;-78
2023/08/25 07:57:22;;;;;;;45.60;33.67;;;;;;;;;;5032449;28;20480;-78
2023/08/25 07:59:49;;;;;;;41.13;32.93;;;;;;;;;;5035617;28;20474;-78
2023/08/25 08:02:17;;;;;;;40.47;31.57;;;;;;;;;;5034132;28;20491;-78
2023/08/25 08:04:44;;;;;;;45.40;31.87;;;;;;;;;;5033791;28;20474;-77
2023/08/25 08:07:10;;;;;;;44.67;31.83;;;;;;;;;;5040350;28;20491;-77
2023/08/25 08:09:37;;;;;;;43.17;32.57;;;;;;;;;;5041010;28;20477;-78
2023/08/25 08:12:03;;;;;;;40.93;31.67;;;;;;;;;;5039210;28;20480;-78
2023/08/25 08:14:35;;;;;;;41.10;32.73;;;;;;;;;;5033703;28;20471;-78
2023/08/25 08:17:01;;;;;;;40.87;33.43;;;;;;;;;;5023603;28;20496;-78
2023/08/25 08:19:29;;;;;;;44.13;32.90;;;;;;;;;;5038834;28;20497;-78
2023/08/25 08:21:55;;;;;;;43.50;32.70;;;;;;;;;;5045773;28;20479;-78
2023/08/25 08:24:22;;;;;;;45.60;33.40;;;;;;;;;;5029350;28;20475;-78
2023/08/25 08:26:48;;;;;;;39.80;33.40;;;;;;;;;;5037204;28;20539;-78
2023/08/25 08:29:15;;;;;;;43.03;32.57;;;;;;;;;;5023354;28;20488;-79
2023/08/25 08:31:44;;;;;;;39.20;30.37;;;;;;;;;;5031926;28;20487;-78
2023/08/25 08:34:11;;;;;;;42.73;28.90;;;;;;;;;;5032920;28;20894;-78
2023/08/25 08:36:39;;;;;;;36.80;28.93;;;;;;;;;;5034357;28;20897;-78
2023/08/25 08:39:06;;;;;;;41.03;31.80;;;;;;;;;;5028842;28;20483;-78
2023/08/25 08:41:33;;;;;;;37.60;32.30;;;;;;;;;;5042637;28;20481;-78
2023/08/25 08:44:00;;;;;;;39.30;31.30;;;;;;;;;;5040240;28;20484;-78
2023/08/25 08:46:27;;;;;;;38.33;31.23;;;;;;;;;;5035303;28;20492;-78
2023/08/25 08:48:54;;;;;;;40.63;33.70;;;;;;;;;;5032517;28;20475;-78
2023/08/25 08:51:21;;;;;;;37.40;29.50;;;;;;;;;;5040879;28;20502;-78
2023/08/25 08:53:50;;;;;;;36.17;30.40;;;;;;;;;;5027529;28;20482;-78
2023/08/25 08:56:17;;;;;;;39.00;31.30;;;;;;;;;;5043452;28;20559;-78
2023/08/25 08:58:43;;;;;;;36.93;29.23;;;;;;;;;;5037201;28;20461;-78
2023/08/25 09:01:11;;;;;;;38.20;31.10;;;;;;;;;;5037747;28;20487;-78
2023/08/25 09:03:38;;;;;;;43.83;33.67;;;;;;;;;;5024505;28;20457;-77
2023/08/25 09:06:05;;;;;;;42.90;32.20;;;;;;;;;;5034652;28;20492;-78
2023/08/25 09:08:32;;;;;;;49.23;35.20;;;;;;;;;;5027850;28;20913;-78
2023/08/25 09:11:02;;;;;;;48.07;33.63;;;;;;;;;;5038684;28;20486;-78
2023/08/25 09:13:30;;;;;;;47.50;34.97;;;;;;;;;;5031295;28;21019;-78
2023/08/25 09:15:57;;;;;;;43.30;34.53;;;;;;;;;;5024992;28;20482;-78
2023/08/25 09:18:25;;;;;;;43.37;35.13;;;;;;;;;;5041545;28;20538;-79
2023/08/25 09:20:53;;;;;;;45.80;34.20;;;;;;;;;;5035544;28;20910;-78
2023/08/25 09:23:19;;;;;;;38.17;29.80;;;;;;;;;;5032429;28;20503;-79
2023/08/25 09:25:48;;;;;;;35.50;29.00;;;;;;;;;;5042220;28;21007;-78
2023/08/25 09:28:16;;;;;;;41.10;32.17;;;;;;;;;;5035395;28;20538;-79
2023/08/25 09:30:44;;;;;;;41.80;30.77;;;;;;;;;;5031317;28;20495;-78
2023/08/25 09:33:13;;;;;;;43.83;32.87;;;;;;;;;;5034086;28;20550;-78
2023/08/25 09:35:40;;;;;;;38.10;32.13;;;;;;;;;;5047337;28;20958;-79
2023/08/25 09:38:07;;;;;;;43.07;32.50;;;;;;;;;;5050685;28;20499;-78
2023/08/25 09:40:35;;;;;;;42.37;31.77;;;;;;;;;;5032914;28;20471;-78
2023/08/25 09:43:02;;;;;;;41.80;31.77;;;;;;;;;;5038992;28;20596;-78
2023/08/25 09:45:30;;;;;;;42.57;29.47;;;;;;;;;;5029746;28;21017;-78
2023/08/25 09:48:06;;;;;;;49.53;34.13;;;;;;;;;;5046801;28;20481;-78
2023/08/25 09:50:36;;;;;;;42.87;30.93;;;;;;;;;;5040774;28;20483;-78
2023/08/25 09:53:03;;;;;;;39.77;30.97;;;;;;;;;;5036072;28;20487;-79
2023/08/25 09:55:29;;;;;;;40.20;30.63;;;;;;;;;;5044147;28;20476;-78
2023/08/25 09:57:56;;;;;;;40.90;30.80;;;;;;;;;;5038978;28;20487;-78
2023/08/25 10:00:23;;;;;;;43.40;32.63;;;;;;;;;;5046141;28;20509;-78
2023/08/25 10:02:51;;;;;;;44.37;34.80;;;;;;;;;;5041206;28;20463;-78
2023/08/25 10:05:18;;;;;;;41.53;29.93;;;;;;;;;;5036200;28;20468;-78
2023/08/25 10:07:45;;;;;;;38.87;31.17;;;;;;;;;;5052234;28;20488;-78
2023/08/25 10:10:11;;;;;;;42.97;30.50;;;;;;;;;;5038271;28;20476;-77
2023/08/25 10:12:39;;;;;;;35.67;28.87;;;;;;;;;;5049904;28;21005;-78
2023/08/25 10:15:08;;;;;;;40.90;29.30;;;;;;;;;;5031499;28;20495;-78
2023/08/25 10:17:34;;;;;;;45.80;32.57;;;;;;;;;;5039899;28;20998;-78
2023/08/25 10:20:04;;;;;;;48.47;30.70;;;;;;;;;;5042053;28;20472;-78
2023/08/25 10:22:31;;;;;;;38.87;30.67;;;;;;;;;;5035408;28;21005;-78
2023/08/25 10:25:01;;;;;;;42.00;31.33;;;;;;;;;;5040717;27;20490;-78
2023/08/25 10:27:28;;;;;;;38.17;31.50;;;;;;;;;;5092441;27;20515;-78
2023/08/25 10:29:54;;;;;;;41.80;30.87;;;;;;;;;;5089248;27;20483;-78
2023/08/25 10:32:21;;;;;;;42.30;30.07;;;;;;;;;;5086873;27;21158;-78
2023/08/25 10:34:53;;;;;;;35.00;26.47;;;;;;;;;;5074131;27;20564;-78
2023/08/25 10:37:25;;;;;;;39.57;30.73;;;;;;;;;;5081943;27;20511;-78
2023/08/25 10:39:52;;;;;;;36.30;29.50;;;;;;;;;;5066732;28;20485;-78
2023/08/25 10:42:20;;;;;;;37.40;28.23;;;;;;;;;;5077955;27;20475;-78
2023/08/25 10:44:47;;;;;;;38.60;30.50;;;;;;;;;;5099541;27;20478;-78
2023/08/25 10:47:18;;;;;;;39.83;29.30;;;;;;;;;;5101392;27;20883;-78
2023/08/25 10:49:46;;;;;;;38.57;28.37;;;;;;;;;;5096218;27;20475;-78
2023/08/25 10:52:13;;;;;;;36.60;27.87;;;;;;;;;;5103734;27;20485;-78
2023/08/25 10:54:42;;;;;;;34.87;26.30;;;;;;;;;;5085379;27;20473;-78
2023/08/25 10:57:18;;;;;;;33.70;26.20;;;;;;;;;;5096509;27;20483;-78
2023/08/25 10:59:46;;;;;;;31.43;26.03;;;;;;;;;;5106610;27;20498;-78
2023/08/25 11:02:33;;;;;;;34.33;27.13;;;;;;;;;;5096042;27;20471;-77
2023/08/25 11:05:14;;;;;;;35.93;27.40;;;;;;;;;;5096347;27;20477;-78
2023/08/25 11:07:44;;;;;;;34.87;27.47;;;;;;;;;;5096592;27;20481;-78
2023/08/25 11:10:14;;;;;;;36.70;27.33;;;;;;;;;;5079335;27;20480;-78
2023/08/25 11:12:41;;;;;;;30.73;25.90;;;;;;;;;;5103786;27;20483;-78
2023/08/25 11:15:08;;;;;;;34.47;28.00;;;;;;;;;;5105125;27;20830;-78
2023/08/25 11:17:35;;;;;;;33.70;26.23;;;;;;;;;;5084736;27;20557;-78
2023/08/25 11:20:02;;;;;;;37.33;25.53;;;;;;;;;;5090502;27;21019;-78
2023/08/25 11:22:28;;;;;;;33.30;23.90;;;;;;;;;;5079913;27;20480;-78
2023/08/25 11:24:55;;;;;;;30.13;24.03;;;;;;;;;;5094317;27;20492;-78
2023/08/25 11:27:24;;;;;;;28.60;24.53;;;;;;;;;;5106429;27;21014;-78
2023/08/25 11:29:51;;;;;;;32.50;25.20;;;;;;;;;;5104901;27;20482;-78
2023/08/25 11:32:17;;;;;;;28.33;21.90;;;;;;;;;;5093181;27;20477;-78
2023/08/25 11:34:48;;;;;;;35.17;26.73;;;;;;;;;;5104396;27;21199;-78
2023/08/25 11:37:14;;;;;;;36.93;26.40;;;;;;;;;;5094727;27;20486;-78
2023/08/25 11:39:42;;;;;;;34.07;27.77;;;;;;;;;;5105423;27;21013;-78
2023/08/25 11:42:09;;;;;;;36.40;28.40;;;;;;;;;;5107113;27;20489;-78
2023/08/25 11:44:39;;;;;;;34.67;24.83;;;;;;;;;;5087451;28;20530;-78
2023/08/25 11:47:06;;;;;;;33.43;26.70;;;;;;;;;;5101479;27;20861;-78
2023/08/25 11:49:33;;;;;;;42.27;30.93;;;;;;;;;;5115124;27;20469;-78
2023/08/25 11:52:00;;;;;;;39.30;29.83;;;;;;;;;;5104381;27;20985;-78
2023/08/25 11:54:26;;;;;;;45.93;33.23;;;;;;;;;;5095772;27;20469;-78
2023/08/25 11:56:53;;;;;;;41.00;31.10;;;;;;;;;;5112517;27;20486;-78
2023/08/25 11:59:20;;;;;;;45.63;31.27;;;;;;;;;;5104261;27;20455;-78
2023/08/25 12:01:49;;;;;;;36.00;30.50;;;;;;;;;;5103143;27;20485;-78
2023/08/25 12:04:23;;;;;;;39.60;30.20;;;;;;;;;;5092157;27;20470;-78
2023/08/25 12:06:51;;;;;;;43.80;30.90;;;;;;;;;;5093825;27;20529;-78
2023/08/25 12:09:17;;;;;;;32.17;28.13;;;;;;;;;;5109945;27;20464;-78
2023/08/25 12:11:44;;;;;;;40.87;31.23;;;;;;;;;;5123446;27;20468;-78
2023/08/25 12:14:23;;;;;;;37.17;31.80;;;;;;;;;;5113971;27;20468;-78
2023/08/25 12:16:51;;;;;;;43.87;31.40;;;;;;;;;;5101042;27;20560;-78
2023/08/25 12:19:17;;;;;;;43.80;34.00;;;;;;;;;;5114888;27;20468;-78
2023/08/25 12:21:43;;;;;;;44.60;32.57;;;;;;;;;;5102816;27;20997;-78
2023/08/25 12:24:10;;;;;;;36.40;29.67;;;;;;;;;;5113257;27;20476;-78
2023/08/25 12:26:38;;;;;;;45.40;32.97;;;;;;;;;;5111881;27;20470;-78
2023/08/25 12:29:08;;;;;;;36.00;27.67;;;;;;;;;;5108605;27;20487;-78
2023/08/25 12:31:35;;;;;;;41.80;32.00;;;;;;;;;;5117712;27;20566;-78
2023/08/25 12:34:03;;;;;;;37.73;29.50;;;;;;;;;;5111322;27;20472;-78
2023/08/25 12:36:29;;;;;;;40.47;30.90;;;;;;;;;;5070053;28;20535;-78
2023/08/25 12:38:57;;;;;;;44.03;33.07;;;;;;;;;;5093461;27;20919;-78
2023/08/25 12:41:23;;;;;;;41.17;31.83;;;;;;;;;;5077937;28;20474;-78
2023/08/25 12:43:50;;;;;;;43.37;32.97;;;;;;;;;;5112476;27;20472;-77
2023/08/25 12:46:18;;;;;;;44.70;35.57;;;;;;;;;;5102087;27;20478;-78
2023/08/25 12:48:44;;;;;;;41.10;33.80;;;;;;;;;;5105093;28;20583;-79
2023/08/25 12:51:15;;;;;;;42.17;33.57;;;;;;;;;;5105915;27;20460;-78
2023/08/25 12:53:42;;;;;;;43.13;33.77;;;;;;;;;;5106999;27;20461;-78
2023/08/25 12:56:08;;;;;;;50.10;37.37;;;;;;;;;;5086333;28;20457;-78
2023/08/25 12:58:38;;;;;;;54.03;35.67;;;;;;;;;;5106488;27;20958;-78
2023/08/25 13:01:06;;;;;;;50.33;37.83;;;;;;;;;;5111328;28;20491;-78
2023/08/25 13:03:33;;;;;;;59.77;38.27;;;;;;;;;;5069371;27;20482;-78
2023/08/25 13:06:00;;;;;;;52.23;37.53;;;;;;;;;;5092597;27;20510;-78
2023/08/25 13:08:27;;;;;;;50.60;38.90;;;;;;;;;;5104693;27;20535;-80
2023/08/25 13:10:54;;;;;;;50.77;40.47;;;;;;;;;;5078415;28;20472;-78
2023/08/25 13:13:21;;;;;;;53.80;39.60;;;;;;;;;;5104072;27;20534;-79
2023/08/25 13:15:47;;;;;;;56.73;37.47;;;;;;;;;;5109830;27;20469;-78
2023/08/25 13:18:13;;;;;;;49.70;37.33;;;;;;;;;;5112395;27;20499;-78
2023/08/25 13:20:40;;;;;;;58.10;40.57;;;;;;;;;;5121440;27;20466;-78
2023/08/25 13:23:06;;;;;;;51.90;39.60;;;;;;;;;;5097000;27;20874;-79
2023/08/25 13:25:34;;;;;;;55.00;38.80;;;;;;;;;;5093770;27;20470;-79
2023/08/25 13:28:01;;;;;;;47.13;37.10;;;;;;;;;;5087212;28;20478;-78
2023/08/25 13:30:27;;;;;;;45.50;35.47;;;;;;;;;;5095197;27;20474;-78
2023/08/25 13:32:53;;;;;;;44.83;36.57;;;;;;;;;;5097334;28;20490;-78
2023/08/25 13:35:20;;;;;;;46.93;37.00;;;;;;;;;;5084743;28;20866;-78
2023/08/25 13:37:46;;;;;;;48.90;35.80;;;;;;;;;;5084701;27;20488;-79
2023/08/25 13:40:13;;;;;;;47.37;37.17;;;;;;;;;;5085854;28;20478;-80
2023/08/25 13:42:40;;;;;;;46.83;36.03;;;;;;;;;;5112040;27;20484;-78
2023/08/25 13:45:07;;;;;;;41.80;33.23;;;;;;;;;;5109244;27;21031;-78
2023/08/25 13:47:33;;;;;;;55.17;33.80;;;;;;;;;;5103121;27;20480;-78
2023/08/25 13:50:00;;;;;;;48.10;37.23;;;;;;;;;;5099794;27;20470;-78
2023/08/25 13:52:26;;;;;;;51.57;37.87;;;;;;;;;;5092896;27;20480;-79
2023/08/25 13:54:55;;;;;;;53.30;39.10;;;;;;;;;;5107879;27;20479;-77
2023/08/25 13:57:21;;;;;;;55.70;39.67;;;;;;;;;;5107622;27;20477;-79
2023/08/25 13:59:49;;;;;;;49.93;36.20;;;;;;;;;;5081377;27;21007;-78
2023/08/25 14:02:16;;;;;;;42.33;34.63;;;;;;;;;;5097862;27;20475;-78
2023/08/25 14:04:42;;;;;;;52.60;38.27;;;;;;;;;;5094277;27;20484;-78
2023/08/25 14:07:09;;;;;;;51.77;39.77;;;;;;;;;;5097889;27;20480;-77
2023/08/25 14:09:35;;;;;;;45.67;35.50;;;;;;;;;;5095303;27;20844;-80
2023/08/25 14:12:03;;;;;;;49.70;37.40;;;;;;;;;;5103860;27;21007;-78
2023/08/25 14:14:29;;;;;;;48.67;37.07;;;;;;;;;;5111052;27;20480;-78
2023/08/25 14:16:57;;;;;;;43.90;34.23;;;;;;;;;;5098466;27;20473;-79